Weather at Florennes airport - EBFS


metar: EBFS 241825Z 04006KT 6000 FEW025TCU BKN120 15/10 Q1015 WHT

28 minuten geleden, om 18:25 UTC, de wind blies met windsnelheden van 3.1 meter per seconde(6.9 mijl per uur) vanuit Noordoost nabij Florennes airport. De temperatuur was 15 °C (59 °F), en de barometerdruk was 1,015 hPa (29.97 inHg). De relatieve vochtigheid was 72.0%. er was weinig stapelwolking op een hoogte van 762 meter (2500 voet) en gebroken bewolking op een hoogte van 3658 meter (12000 voet). De zichtbaarheid was 6.0 kilometer (3.7 mijl).

temperature image   windir image sky image 

Last 24 hour graph Florennes airport - EBFS